createdAt,value
2019-04-22T00:04:10.087Z,99415.45
2019-04-22T00:09:38.724Z,99413.38
2019-04-22T00:14:36.608Z,99413.83
2019-04-22T00:19:55.484Z,99410.95
2019-04-22T00:24:51.205Z,99409.22
2019-04-22T00:30:53.810Z,99413.20
2019-04-22T00:35:00.601Z,99403.64
2019-04-22T00:40:07.338Z,99403.85
2019-04-22T00:45:11.854Z,99396.33
2019-04-22T00:50:21.777Z,99382.50
2019-04-22T00:55:26.268Z,99369.88
2019-04-22T01:00:31.080Z,99368.61
2019-04-22T01:05:46.859Z,99373.16
2019-04-22T01:10:45.449Z,99367.58
2019-04-22T01:15:47.472Z,99352.63
2019-04-22T01:21:13.625Z,99354.42
2019-04-22T01:25:53.104Z,99346.05
2019-04-22T01:30:48.995Z,99346.42
2019-04-22T01:36:04.659Z,99341.32
2019-04-22T01:41:16.524Z,99334.02
2019-04-22T01:46:25.761Z,99327.56
2019-04-22T01:51:28.241Z,99329.92
2019-04-22T01:56:35.021Z,99329.66
2019-04-22T02:01:48.376Z,99333.63
2019-04-22T02:06:43.978Z,99313.56
2019-04-22T02:16:57.012Z,99302.34
2019-04-22T02:21:56.591Z,99298.95
2019-04-22T02:27:00.389Z,99301.55
2019-04-22T02:32:19.388Z,99288.99
2019-04-22T02:37:35.342Z,99283.43
2019-04-22T02:42:42.858Z,99275.58
2019-04-22T02:47:55.755Z,99284.62
2019-04-22T02:52:58.072Z,99291.02
2019-04-22T02:57:57.081Z,99291.81
2019-04-22T03:03:24.825Z,99291.34
2019-04-22T03:08:21.136Z,99301.06
2019-04-22T03:13:29.445Z,99306.48
2019-04-22T03:18:33.553Z,99306.34
2019-04-22T03:23:34.114Z,99312.73
2019-04-22T03:28:37.283Z,99312.50
2019-04-22T03:39:12.763Z,99331.41
2019-04-22T03:44:07.858Z,99318.09
2019-04-22T03:49:23.942Z,99336.35
2019-04-22T03:59:29.488Z,99339.43
2019-04-22T04:19:34.949Z,99370.58
2019-04-22T04:24:48.118Z,99361.83
2019-04-22T04:35:03.207Z,99360.86
2019-04-22T04:39:57.962Z,99364.77
2019-04-22T04:45:26.598Z,99364.33
2019-04-22T04:49:57.041Z,99362.80
2019-04-22T04:55:14.432Z,99364.53
2019-04-22T05:05:16.834Z,99340.84
2019-04-22T05:10:26.487Z,99366.77
2019-04-22T05:20:33.726Z,99385.20
2019-04-22T05:30:34.241Z,99399.84
2019-04-22T05:35:41.342Z,99407.55
2019-04-22T05:40:40.767Z,99410.44
2019-04-22T05:45:51.528Z,99418.65
2019-04-22T05:50:57.928Z,99424.13
2019-04-22T05:56:10.097Z,99423.70
2019-04-22T06:06:17.883Z,99417.86
2019-04-22T06:11:25.681Z,99416.11
2019-04-22T06:16:31.150Z,99421.26
2019-04-22T06:26:53.566Z,99437.05
2019-04-22T06:36:51.103Z,99447.37
2019-04-22T06:42:00.778Z,99459.16
2019-04-22T06:47:03.432Z,99452.53
2019-04-22T06:57:13.843Z,99455.92
2019-04-22T07:02:23.888Z,99466.03
2019-04-22T07:07:24.128Z,99474.73
2019-04-22T07:12:31.375Z,99486.56
2019-04-22T07:17:40.824Z,99486.41
2019-04-22T07:22:59.438Z,99501.97
2019-04-22T07:27:50.563Z,99500.09
2019-04-22T07:38:00.291Z,99516.27
2019-04-22T07:43:09.820Z,99515.47
2019-04-22T07:48:22.547Z,99532.58
2019-04-22T07:53:17.253Z,99535.33
2019-04-22T07:58:26.041Z,99535.30
2019-04-22T08:03:37.856Z,99533.05
2019-04-22T08:08:38.804Z,99535.30
2019-04-22T08:13:43.879Z,99543.25
2019-04-22T08:18:47.324Z,99553.83
2019-04-22T08:23:59.373Z,99554.62
2019-04-22T08:29:11.530Z,99555.04
2019-04-22T08:34:10.672Z,99573.27
2019-04-22T08:39:14.077Z,99589.70
2019-04-22T08:44:17.352Z,99599.16
2019-04-22T08:49:19.913Z,99606.20
2019-04-22T08:54:25.289Z,99620.16
2019-04-22T08:59:31.524Z,99618.77
2019-04-22T09:04:39.078Z,99646.46
2019-04-22T09:09:48.948Z,99651.51
2019-04-22T09:14:57.806Z,99656.21
2019-04-22T09:19:55.876Z,99652.20
2019-04-22T09:24:56.048Z,99637.82
2019-04-22T09:30:10.468Z,99633.02
2019-04-22T09:35:24.889Z,99623.38
2019-04-22T09:40:20.265Z,99611.69
2019-04-22T09:45:16.346Z,99611.72
2019-04-22T09:50:29.421Z,99609.05
2019-04-22T09:55:29.772Z,99614.20
2019-04-22T10:00:42.696Z,99618.09
2019-04-22T10:05:52.194Z,99603.84
2019-04-22T10:10:48.996Z,99609.64
2019-04-22T10:15:57.304Z,99606.89
2019-04-22T10:21:02.098Z,99598.14
2019-04-22T10:26:04.857Z,99599.72
2019-04-22T10:31:17.130Z,99602.80
2019-04-22T10:35:49.967Z,99596.04
2019-04-22T10:40:54.538Z,99601.46
2019-04-22T10:45:59.898Z,99595.51
2019-04-22T10:51:04.564Z,99589.41
2019-04-22T10:56:09.329Z,99572.45
2019-04-22T11:01:13.602Z,99564.19
2019-04-22T11:06:19.076Z,99569.53
2019-04-22T11:11:37.557Z,99568.05
2019-04-22T11:16:31.796Z,99577.31
2019-04-22T11:21:35.957Z,99581.61
2019-04-22T11:26:40.953Z,99577.96
2019-04-22T11:31:44.575Z,99584.30
2019-04-22T11:36:47.967Z,99583.39
2019-04-22T11:41:52.379Z,99586.61
2019-04-22T11:46:57.043Z,99582.22
2019-04-22T11:52:04.769Z,99578.31
2019-04-22T11:57:07.464Z,99573.20
2019-04-22T12:02:14.421Z,99576.05
2019-04-22T12:07:17.165Z,99572.38
2019-04-22T12:12:21.551Z,99569.52
2019-04-22T12:17:26.517Z,99563.18
2019-04-22T12:22:31.270Z,99569.60
2019-04-22T12:27:35.156Z,99575.75
2019-04-22T12:32:39.042Z,99571.55
2019-04-22T12:37:49.570Z,99588.47
2019-04-22T12:42:49.060Z,99606.38
2019-04-22T12:48:00.109Z,99609.20
2019-04-22T12:53:10.441Z,99595.52
2019-04-22T12:58:09.740Z,99588.95
2019-04-22T13:03:13.783Z,99582.73
2019-04-22T13:08:18.052Z,99564.03
2019-04-22T13:13:22.935Z,99548.32
2019-04-22T13:18:36.185Z,99547.38
2019-04-22T13:23:31.813Z,99545.97
2019-04-22T13:28:36.495Z,99570.10
2019-04-22T13:33:40.989Z,99574.33
2019-04-22T13:38:45.031Z,99600.25
2019-04-22T13:43:49.326Z,99618.55
2019-04-22T13:49:25.593Z,99605.73
2019-04-22T13:59:23.065Z,99570.69
2019-04-22T14:04:23.135Z,99561.92
2019-04-22T14:09:26.466Z,99570.09
2019-04-22T14:14:30.252Z,99568.63
2019-04-22T14:19:36.293Z,99565.43
2019-04-22T14:24:40.666Z,99556.91
2019-04-22T14:29:44.009Z,99557.34
2019-04-22T14:34:49.040Z,99564.29
2019-04-22T14:39:53.806Z,99564.76
2019-04-22T14:45:21.960Z,99572.17
2019-04-22T14:50:22.036Z,99567.95
2019-04-22T14:55:17.500Z,99563.48
2019-04-22T15:00:18.128Z,99558.69
2019-04-22T15:05:23.819Z,99555.40
2019-04-22T15:10:28.230Z,99555.09
2019-04-22T15:15:59.530Z,99549.20
2019-04-22T15:21:09.097Z,99540.58
2019-04-22T15:26:12.917Z,99548.39
2019-04-22T15:31:19.372Z,99539.22
2019-04-22T15:36:24.121Z,99540.07
2019-04-22T15:41:28.573Z,99536.86
2019-04-22T15:46:32.140Z,99539.86
2019-04-22T15:51:36.413Z,99532.56
2019-04-22T15:56:41.743Z,99536.58
2019-04-22T16:01:46.660Z,99519.77
2019-04-22T16:06:50.222Z,99523.78
2019-04-22T16:11:54.051Z,99523.14
2019-04-22T16:16:58.751Z,99533.48
2019-04-22T16:22:16.821Z,99541.50
2019-04-22T16:27:22.692Z,99537.60
2019-04-22T16:32:27.615Z,99546.25
2019-04-22T16:37:32.610Z,99541.33
2019-04-22T16:42:43.849Z,99553.27
2019-04-22T16:47:41.877Z,99549.20
2019-04-22T16:52:54.291Z,99553.34
2019-04-22T16:57:58.725Z,99552.66
2019-04-22T17:03:22.637Z,99548.17
2019-04-22T17:08:26.639Z,99543.37
2019-04-22T17:13:32.754Z,99541.98
2019-04-22T17:18:35.314Z,99549.14
2019-04-22T17:23:38.636Z,99554.09
2019-04-22T17:28:41.819Z,99551.65
2019-04-22T17:33:45.000Z,99553.44
2019-04-22T17:38:55.068Z,99545.59
2019-04-22T17:44:21.750Z,99553.66
2019-04-22T17:49:45.714Z,99552.61
2019-04-22T17:54:49.397Z,99559.05
2019-04-22T17:59:50.485Z,99556.16
2019-04-22T18:04:46.764Z,99566.09
2019-04-22T18:15:10.248Z,99576.49
2019-04-22T18:20:13.007Z,99582.14
2019-04-22T18:25:12.367Z,99577.41
2019-04-22T18:30:21.874Z,99578.33
2019-04-22T18:35:30.848Z,99584.77
2019-04-22T18:40:37.286Z,99587.97
2019-04-22T18:45:50.506Z,99584.56
2019-04-22T18:50:59.919Z,99584.57
2019-04-22T18:56:03.872Z,99596.64
2019-04-22T19:00:48.419Z,99595.39
2019-04-22T19:06:24.592Z,99592.02
2019-04-22T19:11:17.110Z,99592.06
2019-04-22T19:16:30.921Z,99596.98
2019-04-22T19:21:26.409Z,99607.93
2019-04-22T19:26:44.419Z,99603.92
2019-04-22T19:31:41.012Z,99605.86
2019-04-22T19:36:46.230Z,99620.37
2019-04-22T19:41:53.688Z,99611.96
2019-04-22T19:47:13.914Z,99619.23
2019-04-22T19:52:05.458Z,99620.11
2019-04-22T19:56:58.986Z,99624.68
2019-04-22T20:02:21.869Z,99626.83
2019-04-22T20:07:40.114Z,99634.27
2019-04-22T20:12:42.794Z,99630.00
2019-04-22T20:18:19.270Z,99631.84
2019-04-22T20:22:57.636Z,99624.85
2019-04-22T20:28:07.480Z,99630.95
2019-04-22T20:33:02.136Z,99634.28
2019-04-22T20:38:14.878Z,99626.02
2019-04-22T20:43:23.527Z,99630.05
2019-04-22T20:48:10.352Z,99631.97
2019-04-22T20:53:34.411Z,99621.89
2019-04-22T20:58:32.761Z,99619.45
2019-04-22T21:03:29.346Z,99612.87
2019-04-22T21:08:42.073Z,99619.14
2019-04-22T21:13:50.475Z,99621.96
2019-04-22T21:18:46.062Z,99618.55
2019-04-22T21:23:53.513Z,99617.33
2019-04-22T21:29:05.464Z,99611.36
2019-04-22T21:34:06.844Z,99615.81
2019-04-22T21:39:15.581Z,99609.66
2019-04-22T21:44:21.267Z,99615.39
2019-04-22T21:49:25.052Z,99608.32
2019-04-22T21:54:34.440Z,99613.48
2019-04-22T21:59:33.300Z,99607.67
2019-04-22T22:04:33.720Z,99613.80
2019-04-22T22:09:43.975Z,99603.05
2019-04-22T22:14:49.770Z,99597.27
2019-04-22T22:19:54.326Z,99601.67
2019-04-22T22:25:01.479Z,99595.67
2019-04-22T22:30:23.665Z,99590.65
2019-04-22T22:35:11.218Z,99585.97
2019-04-22T22:40:03.478Z,99581.34
2019-04-22T22:45:10.757Z,99572.74
2019-04-22T22:50:27.470Z,99576.33
2019-04-22T22:55:36.614Z,99576.97
2019-04-22T23:00:35.607Z,99568.70
2019-04-22T23:05:45.439Z,99560.73
2019-04-22T23:10:57.461Z,99560.61
2019-04-22T23:15:44.332Z,99558.30
2019-04-22T23:20:41.792Z,99550.69
2019-04-22T23:26:06.832Z,99550.81
2019-04-22T23:31:12.651Z,99558.86
2019-04-22T23:36:18.587Z,99555.32
2019-04-22T23:46:56.701Z,99546.20
2019-04-22T23:52:08.883Z,99549.14
2019-04-22T23:57:04.697Z,99534.34
